sensor_id;sensor_type;location;lat;lon;timestamp;P1;durP1;ratioP1;P2;durP2;ratioP2
2001;SDS011;1003;48.002;7.788;2024-03-25T00:00:24;2.73;;;1.50;;
2001;SDS011;1003;48.002;7.788;2024-03-25T00:02:50;3.83;;;1.90;;
2001;SDS011;1003;48.002;7.788;2024-03-25T00:05:17;1.97;;;1.60;;
2001;SDS011;1003;48.002;7.788;2024-03-25T00:07:47;2.67;;;1.90;;
2001;SDS011;1003;48.002;7.788;2024-03-25T00:10:15;3.97;;;1.80;;
2001;SDS011;1003;48.002;7.788;2024-03-25T00:12:40;6.13;;;2.00;;
2001;SDS011;1003;48.002;7.788;2024-03-25T00:15:07;3.00;;;1.87;;
2001;SDS011;1003;48.002;7.788;2024-03-25T00:17:33;4.33;;;1.90;;
2001;SDS011;1003;48.002;7.788;2024-03-25T00:20:00;4.03;;;1.90;;
2001;SDS011;1003;48.002;7.788;2024-03-25T00:22:26;2.63;;;1.67;;
2001;SDS011;1003;48.002;7.788;2024-03-25T00:24:53;1.67;;;1.57;;
2001;SDS011;1003;48.002;7.788;2024-03-25T00:27:19;2.43;;;1.83;;
2001;SDS011;1003;48.002;7.788;2024-03-25T00:29:45;3.43;;;1.77;;
2001;SDS011;1003;48.002;7.788;2024-03-25T00:32:11;3.10;;;2.13;;
2001;SDS011;1003;48.002;7.788;2024-03-25T00:34:39;2.07;;;1.80;;
2001;SDS011;1003;48.002;7.788;2024-03-25T00:37:05;6.17;;;2.17;;
2001;SDS011;1003;48.002;7.788;2024-03-25T00:39:32;4.60;;;1.90;;
2001;SDS011;1003;48.002;7.788;2024-03-25T00:41:59;2.30;;;1.80;;
2001;SDS011;1003;48.002;7.788;2024-03-25T00:44:26;4.90;;;1.90;;
2001;SDS011;1003;48.002;7.788;2024-03-25T00:46:52;4.30;;;2.07;;
2001;SDS011;1003;48.002;7.788;2024-03-25T00:49:19;3.63;;;1.93;;
2001;SDS011;1003;48.002;7.788;2024-03-25T00:51:46;4.73;;;2.10;;
2001;SDS011;1003;48.002;7.788;2024-03-25T00:54:13;3.73;;;1.87;;
2001;SDS011;1003;48.002;7.788;2024-03-25T00:56:38;4.57;;;2.20;;
2001;SDS011;1003;48.002;7.788;2024-03-25T00:59:05;4.43;;;1.90;;
2001;SDS011;1003;48.002;7.788;2024-03-25T01:01:34;2.20;;;1.70;;
2001;SDS011;1003;48.002;7.788;2024-03-25T01:04:01;3.33;;;2.07;;
2001;SDS011;1003;48.002;7.788;2024-03-25T01:06:28;3.33;;;1.80;;
2001;SDS011;1003;48.002;7.788;2024-03-25T01:08:54;3.33;;;1.83;;
2001;SDS011;1003;48.002;7.788;2024-03-25T01:11:20;1.70;;;1.60;;
2001;SDS011;1003;48.002;7.788;2024-03-25T01:13:48;2.40;;;1.80;;
2001;SDS011;1003;48.002;7.788;2024-03-25T01:16:14;3.73;;;2.10;;
2001;SDS011;1003;48.002;7.788;2024-03-25T01:18:41;3.53;;;1.80;;
2001;SDS011;1003;48.002;7.788;2024-03-25T01:21:07;2.70;;;1.90;;
2001;SDS011;1003;48.002;7.788;2024-03-25T01:23:33;2.10;;;1.70;;
2001;SDS011;1003;48.002;7.788;2024-03-25T01:25:59;8.17;;;1.90;;
2001;SDS011;1003;48.002;7.788;2024-03-25T01:28:26;4.20;;;1.90;;
2001;SDS011;1003;48.002;7.788;2024-03-25T01:30:52;3.70;;;1.50;;
2001;SDS011;1003;48.002;7.788;2024-03-25T01:33:19;5.33;;;2.10;;
2001;SDS011;1003;48.002;7.788;2024-03-25T01:35:45;3.37;;;1.93;;
2001;SDS011;1003;48.002;7.788;2024-03-25T01:38:11;3.67;;;1.70;;
2001;SDS011;1003;48.002;7.788;2024-03-25T01:40:37;2.30;;;1.83;;
2001;SDS011;1003;48.002;7.788;2024-03-25T01:43:04;2.63;;;1.67;;
2001;SDS011;1003;48.002;7.788;2024-03-25T01:45:30;3.20;;;1.87;;
2001;SDS011;1003;48.002;7.788;2024-03-25T01:48:04;3.47;;;1.77;;
2001;SDS011;1003;48.002;7.788;2024-03-25T01:50:35;2.00;;;1.53;;
2001;SDS011;1003;48.002;7.788;2024-03-25T01:53:08;2.43;;;1.87;;
2001;SDS011;1003;48.002;7.788;2024-03-25T01:55:36;3.10;;;2.10;;
2001;SDS011;1003;48.002;7.788;2024-03-25T01:58:04;2.43;;;1.90;;
2001;SDS011;1003;48.002;7.788;2024-03-25T02:00:31;3.57;;;1.70;;
2001;SDS011;1003;48.002;7.788;2024-03-25T02:02:59;3.13;;;2.30;;
2001;SDS011;1003;48.002;7.788;2024-03-25T02:05:24;3.17;;;2.00;;
2001;SDS011;1003;48.002;7.788;2024-03-25T02:07:52;4.30;;;1.87;;
2001;SDS011;1003;48.002;7.788;2024-03-25T02:10:18;3.60;;;1.90;;
2001;SDS011;1003;48.002;7.788;2024-03-25T02:12:47;4.00;;;1.97;;
2001;SDS011;1003;48.002;7.788;2024-03-25T02:15:14;2.40;;;1.90;;
2001;SDS011;1003;48.002;7.788;2024-03-25T02:17:41;2.23;;;1.80;;
2001;SDS011;1003;48.002;7.788;2024-03-25T02:20:07;3.20;;;1.93;;
2001;SDS011;1003;48.002;7.788;2024-03-25T02:22:35;6.13;;;1.80;;
2001;SDS011;1003;48.002;7.788;2024-03-25T02:25:03;2.60;;;1.83;;
2001;SDS011;1003;48.002;7.788;2024-03-25T02:27:34;2.77;;;1.80;;
2001;SDS011;1003;48.002;7.788;2024-03-25T02:30:06;7.43;;;2.60;;
2001;SDS011;1003;48.002;7.788;2024-03-25T02:32:39;3.13;;;1.93;;
2001;SDS011;1003;48.002;7.788;2024-03-25T02:35:06;2.43;;;2.03;;
2001;SDS011;1003;48.002;7.788;2024-03-25T02:37:37;2.60;;;1.90;;
2001;SDS011;1003;48.002;7.788;2024-03-25T02:40:04;2.37;;;1.90;;
2001;SDS011;1003;48.002;7.788;2024-03-25T02:42:34;2.67;;;1.70;;
2001;SDS011;1003;48.002;7.788;2024-03-25T02:45:05;4.83;;;2.30;;
2001;SDS011;1003;48.002;7.788;2024-03-25T02:47:32;3.30;;;2.07;;
2001;SDS011;1003;48.002;7.788;2024-03-25T02:49:59;4.07;;;2.00;;
2001;SDS011;1003;48.002;7.788;2024-03-25T02:52:24;3.17;;;2.10;;
2001;SDS011;1003;48.002;7.788;2024-03-25T02:54:52;5.47;;;2.20;;
2001;SDS011;1003;48.002;7.788;2024-03-25T02:57:19;2.80;;;2.10;;
2001;SDS011;1003;48.002;7.788;2024-03-25T02:59:46;4.87;;;1.80;;
2001;SDS011;1003;48.002;7.788;2024-03-25T03:02:12;5.20;;;2.10;;
2001;SDS011;1003;48.002;7.788;2024-03-25T03:04:38;4.93;;;2.40;;
2001;SDS011;1003;48.002;7.788;2024-03-25T03:07:04;3.83;;;2.10;;
2001;SDS011;1003;48.002;7.788;2024-03-25T03:09:31;3.23;;;2.27;;
2001;SDS011;1003;48.002;7.788;2024-03-25T03:11:57;4.03;;;2.07;;
2001;SDS011;1003;48.002;7.788;2024-03-25T03:14:23;3.23;;;2.00;;
2001;SDS011;1003;48.002;7.788;2024-03-25T03:16:49;4.83;;;2.10;;
2001;SDS011;1003;48.002;7.788;2024-03-25T03:19:19;3.97;;;2.20;;
2001;SDS011;1003;48.002;7.788;2024-03-25T03:21:46;4.43;;;2.60;;
2001;SDS011;1003;48.002;7.788;2024-03-25T03:24:12;3.93;;;2.47;;
2001;SDS011;1003;48.002;7.788;2024-03-25T03:26:38;3.00;;;1.97;;
2001;SDS011;1003;48.002;7.788;2024-03-25T03:29:05;3.33;;;2.00;;
2001;SDS011;1003;48.002;7.788;2024-03-25T03:31:30;4.23;;;2.00;;
2001;SDS011;1003;48.002;7.788;2024-03-25T03:33:57;4.37;;;2.30;;
2001;SDS011;1003;48.002;7.788;2024-03-25T03:36:23;4.07;;;2.50;;
2001;SDS011;1003;48.002;7.788;2024-03-25T03:38:50;2.67;;;2.30;;
2001;SDS011;1003;48.002;7.788;2024-03-25T03:41:16;3.67;;;2.37;;
2001;SDS011;1003;48.002;7.788;2024-03-25T03:43:44;4.00;;;1.90;;
2001;SDS011;1003;48.002;7.788;2024-03-25T03:46:10;4.57;;;2.07;;
2001;SDS011;1003;48.002;7.788;2024-03-25T03:48:36;2.80;;;1.97;;
2001;SDS011;1003;48.002;7.788;2024-03-25T03:51:03;2.90;;;2.17;;
2001;SDS011;1003;48.002;7.788;2024-03-25T03:53:34;3.53;;;2.40;;
2001;SDS011;1003;48.002;7.788;2024-03-25T03:56:04;2.60;;;2.00;;
2001;SDS011;1003;48.002;7.788;2024-03-25T03:58:31;3.00;;;2.47;;
2001;SDS011;1003;48.002;7.788;2024-03-25T04:00:57;3.60;;;2.30;;
2001;SDS011;1003;48.002;7.788;2024-03-25T04:03:25;3.97;;;2.00;;
2001;SDS011;1003;48.002;7.788;2024-03-25T04:05:51;3.97;;;2.20;;
2001;SDS011;1003;48.002;7.788;2024-03-25T04:08:18;2.83;;;2.27;;
2001;SDS011;1003;48.002;7.788;2024-03-25T04:10:44;5.17;;;2.30;;
2001;SDS011;1003;48.002;7.788;2024-03-25T04:13:11;3.60;;;2.33;;
2001;SDS011;1003;48.002;7.788;2024-03-25T04:15:38;4.50;;;2.60;;
2001;SDS011;1003;48.002;7.788;2024-03-25T04:18:09;4.37;;;2.60;;
2001;SDS011;1003;48.002;7.788;2024-03-25T04:20:41;4.60;;;2.20;;
2001;SDS011;1003;48.002;7.788;2024-03-25T04:23:08;4.20;;;2.43;;
2001;SDS011;1003;48.002;7.788;2024-03-25T04:25:34;3.60;;;2.33;;
2001;SDS011;1003;48.002;7.788;2024-03-25T04:28:02;4.03;;;2.53;;
2001;SDS011;1003;48.002;7.788;2024-03-25T04:30:29;4.03;;;2.57;;
2001;SDS011;1003;48.002;7.788;2024-03-25T04:32:57;2.90;;;2.23;;
2001;SDS011;1003;48.002;7.788;2024-03-25T04:35:23;3.90;;;2.40;;
2001;SDS011;1003;48.002;7.788;2024-03-25T04:37:49;4.07;;;2.50;;
2001;SDS011;1003;48.002;7.788;2024-03-25T04:40:15;4.90;;;2.57;;
2001;SDS011;1003;48.002;7.788;2024-03-25T04:42:41;3.90;;;2.50;;
2001;SDS011;1003;48.002;7.788;2024-03-25T04:45:07;4.60;;;2.40;;
2001;SDS011;1003;48.002;7.788;2024-03-25T04:47:33;3.53;;;2.30;;
2001;SDS011;1003;48.002;7.788;2024-03-25T04:49:59;4.17;;;2.17;;
2001;SDS011;1003;48.002;7.788;2024-03-25T04:52:25;4.63;;;2.43;;
2001;SDS011;1003;48.002;7.788;2024-03-25T04:54:50;4.03;;;2.17;;
2001;SDS011;1003;48.002;7.788;2024-03-25T04:57:16;4.70;;;2.60;;
2001;SDS011;1003;48.002;7.788;2024-03-25T04:59:42;4.00;;;2.47;;
2001;SDS011;1003;48.002;7.788;2024-03-25T05:02:08;3.43;;;2.47;;
2001;SDS011;1003;48.002;7.788;2024-03-25T05:04:34;5.50;;;2.60;;
2001;SDS011;1003;48.002;7.788;2024-03-25T05:06:59;2.93;;;2.60;;
2001;SDS011;1003;48.002;7.788;2024-03-25T05:09:25;4.47;;;2.37;;
2001;SDS011;1003;48.002;7.788;2024-03-25T05:11:51;3.87;;;2.43;;
2001;SDS011;1003;48.002;7.788;2024-03-25T05:14:17;3.40;;;2.50;;
2001;SDS011;1003;48.002;7.788;2024-03-25T05:16:42;6.33;;;2.63;;
2001;SDS011;1003;48.002;7.788;2024-03-25T05:19:08;5.47;;;2.60;;
2001;SDS011;1003;48.002;7.788;2024-03-25T05:21:34;3.67;;;2.63;;
2001;SDS011;1003;48.002;7.788;2024-03-25T05:24:00;4.43;;;2.60;;
2001;SDS011;1003;48.002;7.788;2024-03-25T05:26:26;5.23;;;2.37;;
2001;SDS011;1003;48.002;7.788;2024-03-25T05:28:55;5.17;;;2.40;;
2001;SDS011;1003;48.002;7.788;2024-03-25T05:31:22;4.80;;;2.57;;
2001;SDS011;1003;48.002;7.788;2024-03-25T05:33:48;4.13;;;2.47;;
2001;SDS011;1003;48.002;7.788;2024-03-25T05:36:14;5.60;;;2.50;;
2001;SDS011;1003;48.002;7.788;2024-03-25T05:38:40;4.77;;;2.23;;
2001;SDS011;1003;48.002;7.788;2024-03-25T05:41:07;5.77;;;2.67;;
2001;SDS011;1003;48.002;7.788;2024-03-25T05:43:32;5.77;;;3.13;;
2001;SDS011;1003;48.002;7.788;2024-03-25T05:45:58;4.30;;;2.60;;
2001;SDS011;1003;48.002;7.788;2024-03-25T05:48:24;3.33;;;2.47;;
2001;SDS011;1003;48.002;7.788;2024-03-25T05:51:00;3.20;;;2.30;;
2001;SDS011;1003;48.002;7.788;2024-03-25T05:53:28;4.10;;;2.83;;
2001;SDS011;1003;48.002;7.788;2024-03-25T05:55:55;5.13;;;2.43;;
2001;SDS011;1003;48.002;7.788;2024-03-25T05:58:21;3.97;;;2.43;;
2001;SDS011;1003;48.002;7.788;2024-03-25T06:00:47;4.10;;;2.50;;
2001;SDS011;1003;48.002;7.788;2024-03-25T06:03:14;4.80;;;2.57;;
2001;SDS011;1003;48.002;7.788;2024-03-25T06:05:41;4.27;;;2.73;;
2001;SDS011;1003;48.002;7.788;2024-03-25T06:08:07;5.13;;;2.80;;
2001;SDS011;1003;48.002;7.788;2024-03-25T06:10:37;5.50;;;3.07;;
2001;SDS011;1003;48.002;7.788;2024-03-25T06:13:03;3.07;;;2.40;;
2001;SDS011;1003;48.002;7.788;2024-03-25T06:15:29;2.90;;;2.43;;
2001;SDS011;1003;48.002;7.788;2024-03-25T06:17:54;5.43;;;2.90;;
2001;SDS011;1003;48.002;7.788;2024-03-25T06:20:20;6.17;;;2.80;;
2001;SDS011;1003;48.002;7.788;2024-03-25T06:22:46;6.97;;;2.70;;
2001;SDS011;1003;48.002;7.788;2024-03-25T06:25:12;3.33;;;2.37;;
2001;SDS011;1003;48.002;7.788;2024-03-25T06:27:38;4.70;;;2.60;;
2001;SDS011;1003;48.002;7.788;2024-03-25T06:30:04;2.97;;;2.17;;
2001;SDS011;1003;48.002;7.788;2024-03-25T06:32:45;4.20;;;2.10;;
2001;SDS011;1003;48.002;7.788;2024-03-25T06:35:29;4.07;;;2.50;;
2001;SDS011;1003;48.002;7.788;2024-03-25T06:37:55;3.53;;;2.10;;
2001;SDS011;1003;48.002;7.788;2024-03-25T06:40:21;4.00;;;2.03;;
2001;SDS011;1003;48.002;7.788;2024-03-25T06:42:46;4.10;;;1.93;;
2001;SDS011;1003;48.002;7.788;2024-03-25T06:45:12;3.60;;;1.90;;
2001;SDS011;1003;48.002;7.788;2024-03-25T06:47:38;3.00;;;1.87;;
2001;SDS011;1003;48.002;7.788;2024-03-25T06:50:04;5.27;;;1.90;;
2001;SDS011;1003;48.002;7.788;2024-03-25T06:52:30;3.67;;;1.80;;
2001;SDS011;1003;48.002;7.788;2024-03-25T06:54:56;3.53;;;1.80;;
2001;SDS011;1003;48.002;7.788;2024-03-25T06:57:22;5.53;;;2.10;;
2001;SDS011;1003;48.002;7.788;2024-03-25T06:59:48;1.90;;;1.60;;
2001;SDS011;1003;48.002;7.788;2024-03-25T07:02:13;3.43;;;2.43;;
2001;SDS011;1003;48.002;7.788;2024-03-25T07:04:39;3.67;;;1.70;;
2001;SDS011;1003;48.002;7.788;2024-03-25T07:07:05;2.93;;;1.87;;
2001;SDS011;1003;48.002;7.788;2024-03-25T07:09:31;4.07;;;1.90;;
2001;SDS011;1003;48.002;7.788;2024-03-25T07:11:57;4.43;;;1.80;;
2001;SDS011;1003;48.002;7.788;2024-03-25T07:14:22;2.80;;;1.63;;
2001;SDS011;1003;48.002;7.788;2024-03-25T07:16:48;2.63;;;1.77;;
2001;SDS011;1003;48.002;7.788;2024-03-25T07:19:14;2.57;;;1.60;;
2001;SDS011;1003;48.002;7.788;2024-03-25T07:21:40;3.20;;;2.03;;
2001;SDS011;1003;48.002;7.788;2024-03-25T07:24:05;3.53;;;1.70;;
2001;SDS011;1003;48.002;7.788;2024-03-25T07:26:31;4.47;;;1.93;;
2001;SDS011;1003;48.002;7.788;2024-03-25T07:28:57;2.30;;;1.80;;
2001;SDS011;1003;48.002;7.788;2024-03-25T07:31:23;3.53;;;1.80;;
2001;SDS011;1003;48.002;7.788;2024-03-25T07:33:48;4.33;;;1.93;;
2001;SDS011;1003;48.002;7.788;2024-03-25T07:36:14;3.53;;;1.87;;
2001;SDS011;1003;48.002;7.788;2024-03-25T07:38:40;3.40;;;1.50;;
2001;SDS011;1003;48.002;7.788;2024-03-25T07:41:06;3.13;;;1.70;;
2001;SDS011;1003;48.002;7.788;2024-03-25T07:43:31;2.57;;;1.47;;
2001;SDS011;1003;48.002;7.788;2024-03-25T07:45:57;2.10;;;1.53;;
2001;SDS011;1003;48.002;7.788;2024-03-25T07:48:23;3.17;;;1.60;;
2001;SDS011;1003;48.002;7.788;2024-03-25T07:50:49;1.70;;;1.60;;
2001;SDS011;1003;48.002;7.788;2024-03-25T07:53:14;1.70;;;1.60;;
2001;SDS011;1003;48.002;7.788;2024-03-25T07:55:40;1.70;;;1.30;;
2001;SDS011;1003;48.002;7.788;2024-03-25T07:58:06;2.87;;;1.43;;
2001;SDS011;1003;48.002;7.788;2024-03-25T08:00:32;2.30;;;1.30;;
2001;SDS011;1003;48.002;7.788;2024-03-25T08:02:58;3.53;;;1.70;;
2001;SDS011;1003;48.002;7.788;2024-03-25T08:05:24;3.37;;;1.80;;
2001;SDS011;1003;48.002;7.788;2024-03-25T08:07:50;2.10;;;1.60;;
2001;SDS011;1003;48.002;7.788;2024-03-25T08:10:15;3.33;;;1.40;;
2001;SDS011;1003;48.002;7.788;2024-03-25T08:12:41;2.80;;;1.70;;
2001;SDS011;1003;48.002;7.788;2024-03-25T08:15:07;4.53;;;1.60;;
2001;SDS011;1003;48.002;7.788;2024-03-25T08:17:33;2.70;;;1.77;;
2001;SDS011;1003;48.002;7.788;2024-03-25T08:19:59;3.70;;;1.50;;
2001;SDS011;1003;48.002;7.788;2024-03-25T08:22:25;2.17;;;1.40;;
2001;SDS011;1003;48.002;7.788;2024-03-25T08:24:51;2.80;;;1.53;;
2001;SDS011;1003;48.002;7.788;2024-03-25T08:27:17;1.87;;;1.27;;
2001;SDS011;1003;48.002;7.788;2024-03-25T08:29:42;4.57;;;2.63;;
2001;SDS011;1003;48.002;7.788;2024-03-25T08:32:08;2.53;;;1.60;;
2001;SDS011;1003;48.002;7.788;2024-03-25T08:34:34;1.90;;;1.40;;
2001;SDS011;1003;48.002;7.788;2024-03-25T08:37:00;2.47;;;1.97;;
2001;SDS011;1003;48.002;7.788;2024-03-25T08:39:25;1.93;;;1.40;;
2001;SDS011;1003;48.002;7.788;2024-03-25T08:41:51;3.03;;;1.60;;
2001;SDS011;1003;48.002;7.788;2024-03-25T08:44:17;2.63;;;1.40;;
2001;SDS011;1003;48.002;7.788;2024-03-25T08:46:43;3.10;;;1.47;;
2001;SDS011;1003;48.002;7.788;2024-03-25T08:49:08;2.57;;;1.53;;
2001;SDS011;1003;48.002;7.788;2024-03-25T08:51:34;3.17;;;1.50;;
2001;SDS011;1003;48.002;7.788;2024-03-25T08:54:00;2.73;;;1.57;;
2001;SDS011;1003;48.002;7.788;2024-03-25T08:56:26;4.03;;;2.40;;
2001;SDS011;1003;48.002;7.788;2024-03-25T08:58:51;2.30;;;1.70;;
2001;SDS011;1003;48.002;7.788;2024-03-25T09:01:17;3.57;;;2.33;;
2001;SDS011;1003;48.002;7.788;2024-03-25T09:03:43;4.30;;;2.57;;
2001;SDS011;1003;48.002;7.788;2024-03-25T09:06:09;4.97;;;2.17;;
2001;SDS011;1003;48.002;7.788;2024-03-25T09:08:35;5.20;;;2.40;;
2001;SDS011;1003;48.002;7.788;2024-03-25T09:11:00;3.27;;;1.80;;
2001;SDS011;1003;48.002;7.788;2024-03-25T09:13:30;1.93;;;1.63;;
2001;SDS011;1003;48.002;7.788;2024-03-25T09:15:56;1.93;;;1.70;;
2001;SDS011;1003;48.002;7.788;2024-03-25T09:18:22;2.17;;;1.47;;
2001;SDS011;1003;48.002;7.788;2024-03-25T09:20:48;3.13;;;1.83;;
2001;SDS011;1003;48.002;7.788;2024-03-25T09:23:13;2.60;;;1.97;;
2001;SDS011;1003;48.002;7.788;2024-03-25T09:25:39;3.07;;;2.10;;
2001;SDS011;1003;48.002;7.788;2024-03-25T09:28:05;2.83;;;2.07;;
2001;SDS011;1003;48.002;7.788;2024-03-25T09:30:32;3.07;;;1.43;;
2001;SDS011;1003;48.002;7.788;2024-03-25T09:32:58;3.17;;;1.50;;
2001;SDS011;1003;48.002;7.788;2024-03-25T09:35:23;1.50;;;1.30;;
2001;SDS011;1003;48.002;7.788;2024-03-25T09:37:49;3.27;;;1.57;;
2001;SDS011;1003;48.002;7.788;2024-03-25T09:40:15;3.60;;;1.60;;
2001;SDS011;1003;48.002;7.788;2024-03-25T09:42:48;1.73;;;1.33;;
2001;SDS011;1003;48.002;7.788;2024-03-25T09:45:21;1.43;;;1.30;;
2001;SDS011;1003;48.002;7.788;2024-03-25T09:47:50;2.37;;;1.57;;
2001;SDS011;1003;48.002;7.788;2024-03-25T09:50:17;2.60;;;1.60;;
2001;SDS011;1003;48.002;7.788;2024-03-25T09:52:44;2.80;;;1.80;;
2001;SDS011;1003;48.002;7.788;2024-03-25T09:55:16;3.40;;;2.00;;
2001;SDS011;1003;48.002;7.788;2024-03-25T09:57:43;1.90;;;1.40;;
2001;SDS011;1003;48.002;7.788;2024-03-25T10:00:10;3.50;;;2.40;;
2001;SDS011;1003;48.002;7.788;2024-03-25T10:02:37;4.17;;;2.00;;
2001;SDS011;1003;48.002;7.788;2024-03-25T10:05:05;3.07;;;1.80;;
2001;SDS011;1003;48.002;7.788;2024-03-25T10:07:32;1.70;;;1.40;;
2001;SDS011;1003;48.002;7.788;2024-03-25T10:09:59;1.50;;;1.40;;
2001;SDS011;1003;48.002;7.788;2024-03-25T10:12:29;2.50;;;1.40;;
2001;SDS011;1003;48.002;7.788;2024-03-25T10:14:54;3.40;;;1.27;;
2001;SDS011;1003;48.002;7.788;2024-03-25T10:17:21;1.73;;;1.50;;
2001;SDS011;1003;48.002;7.788;2024-03-25T10:19:47;3.00;;;1.50;;
2001;SDS011;1003;48.002;7.788;2024-03-25T10:22:13;2.87;;;1.30;;
2001;SDS011;1003;48.002;7.788;2024-03-25T10:24:39;2.13;;;1.60;;
2001;SDS011;1003;48.002;7.788;2024-03-25T10:27:20;2.63;;;1.30;;
2001;SDS011;1003;48.002;7.788;2024-03-25T10:29:48;2.37;;;1.77;;
2001;SDS011;1003;48.002;7.788;2024-03-25T10:32:19;2.37;;;1.40;;
2001;SDS011;1003;48.002;7.788;2024-03-25T10:34:45;2.30;;;1.60;;
2001;SDS011;1003;48.002;7.788;2024-03-25T10:37:11;3.70;;;1.77;;
2001;SDS011;1003;48.002;7.788;2024-03-25T10:39:39;2.10;;;1.53;;
2001;SDS011;1003;48.002;7.788;2024-03-25T10:42:13;3.43;;;1.50;;
2001;SDS011;1003;48.002;7.788;2024-03-25T10:44:44;4.17;;;1.43;;
2001;SDS011;1003;48.002;7.788;2024-03-25T10:47:14;1.53;;;1.30;;
2001;SDS011;1003;48.002;7.788;2024-03-25T10:49:49;2.00;;;1.30;;
2001;SDS011;1003;48.002;7.788;2024-03-25T10:52:22;1.80;;;1.20;;
2001;SDS011;1003;48.002;7.788;2024-03-25T10:54:51;1.43;;;1.10;;
2001;SDS011;1003;48.002;7.788;2024-03-25T10:57:18;3.37;;;1.30;;
2001;SDS011;1003;48.002;7.788;2024-03-25T10:59:44;1.50;;;1.30;;
2001;SDS011;1003;48.002;7.788;2024-03-25T11:02:11;2.03;;;1.30;;
2001;SDS011;1003;48.002;7.788;2024-03-25T11:04:38;2.00;;;1.00;;
2001;SDS011;1003;48.002;7.788;2024-03-25T11:09:39;1.90;;;1.20;;
2001;SDS011;1003;48.002;7.788;2024-03-25T11:12:11;3.97;;;1.00;;
2001;SDS011;1003;48.002;7.788;2024-03-25T11:14:38;1.40;;;1.30;;
2001;SDS011;1003;48.002;7.788;2024-03-25T11:17:14;2.40;;;1.20;;
2001;SDS011;1003;48.002;7.788;2024-03-25T11:19:41;2.47;;;1.17;;
2001;SDS011;1003;48.002;7.788;2024-03-25T11:22:07;2.93;;;1.20;;
2001;SDS011;1003;48.002;7.788;2024-03-25T11:24:36;1.63;;;1.50;;
2001;SDS011;1003;48.002;7.788;2024-03-25T11:27:05;1.73;;;1.20;;
2001;SDS011;1003;48.002;7.788;2024-03-25T11:29:32;2.83;;;1.40;;
2001;SDS011;1003;48.002;7.788;2024-03-25T11:32:05;1.90;;;1.37;;
2001;SDS011;1003;48.002;7.788;2024-03-25T11:34:31;1.27;;;1.10;;
2001;SDS011;1003;48.002;7.788;2024-03-25T11:36:57;2.30;;;1.30;;
2001;SDS011;1003;48.002;7.788;2024-03-25T11:39:23;2.20;;;1.30;;
2001;SDS011;1003;48.002;7.788;2024-03-25T11:41:50;2.50;;;1.30;;
2001;SDS011;1003;48.002;7.788;2024-03-25T11:44:16;2.23;;;1.50;;
2001;SDS011;1003;48.002;7.788;2024-03-25T11:46:42;2.30;;;1.43;;
2001;SDS011;1003;48.002;7.788;2024-03-25T11:49:12;3.37;;;1.17;;
2001;SDS011;1003;48.002;7.788;2024-03-25T11:51:42;1.90;;;1.17;;
2001;SDS011;1003;48.002;7.788;2024-03-25T11:54:13;2.23;;;1.40;;
2001;SDS011;1003;48.002;7.788;2024-03-25T11:56:39;3.10;;;1.20;;
2001;SDS011;1003;48.002;7.788;2024-03-25T11:59:05;1.40;;;1.30;;
2001;SDS011;1003;48.002;7.788;2024-03-25T12:01:31;1.30;;;1.20;;
2001;SDS011;1003;48.002;7.788;2024-03-25T12:03:57;2.53;;;1.23;;
2001;SDS011;1003;48.002;7.788;2024-03-25T12:06:35;2.33;;;1.10;;
2001;SDS011;1003;48.002;7.788;2024-03-25T12:09:00;1.60;;;1.40;;
2001;SDS011;1003;48.002;7.788;2024-03-25T12:11:45;1.13;;;0.93;;
2001;SDS011;1003;48.002;7.788;2024-03-25T12:14:10;2.93;;;1.27;;
2001;SDS011;1003;48.002;7.788;2024-03-25T12:16:36;1.50;;;1.17;;
2001;SDS011;1003;48.002;7.788;2024-03-25T12:19:02;3.13;;;1.50;;
2001;SDS011;1003;48.002;7.788;2024-03-25T12:21:28;1.50;;;1.40;;
2001;SDS011;1003;48.002;7.788;2024-03-25T12:23:56;1.10;;;1.00;;
2001;SDS011;1003;48.002;7.788;2024-03-25T12:26:23;1.13;;;1.03;;
2001;SDS011;1003;48.002;7.788;2024-03-25T12:28:49;1.00;;;0.93;;
2001;SDS011;1003;48.002;7.788;2024-03-25T12:31:15;1.80;;;1.20;;
2001;SDS011;1003;48.002;7.788;2024-03-25T12:33:41;2.70;;;1.20;;
2001;SDS011;1003;48.002;7.788;2024-03-25T12:36:08;1.10;;;1.03;;
2001;SDS011;1003;48.002;7.788;2024-03-25T12:38:37;1.67;;;1.10;;
2001;SDS011;1003;48.002;7.788;2024-03-25T12:41:03;2.27;;;1.17;;
2001;SDS011;1003;48.002;7.788;2024-03-25T12:43:34;2.23;;;1.20;;
2001;SDS011;1003;48.002;7.788;2024-03-25T12:46:06;1.40;;;1.03;;
2001;SDS011;1003;48.002;7.788;2024-03-25T12:48:32;2.77;;;1.30;;
2001;SDS011;1003;48.002;7.788;2024-03-25T12:50:58;1.93;;;1.20;;
2001;SDS011;1003;48.002;7.788;2024-03-25T12:53:24;1.30;;;1.20;;
2001;SDS011;1003;48.002;7.788;2024-03-25T12:55:50;1.90;;;1.00;;
2001;SDS011;1003;48.002;7.788;2024-03-25T12:58:15;1.37;;;1.20;;
2001;SDS011;1003;48.002;7.788;2024-03-25T13:00:41;3.17;;;1.50;;
2001;SDS011;1003;48.002;7.788;2024-03-25T13:03:07;1.93;;;1.03;;
2001;SDS011;1003;48.002;7.788;2024-03-25T13:05:34;1.90;;;1.30;;
2001;SDS011;1003;48.002;7.788;2024-03-25T13:08:01;1.20;;;1.10;;
2001;SDS011;1003;48.002;7.788;2024-03-25T13:10:31;1.40;;;1.20;;
2001;SDS011;1003;48.002;7.788;2024-03-25T13:12:57;1.27;;;1.17;;
2001;SDS011;1003;48.002;7.788;2024-03-25T13:15:26;1.30;;;1.20;;
2001;SDS011;1003;48.002;7.788;2024-03-25T13:17:52;1.37;;;1.27;;
2001;SDS011;1003;48.002;7.788;2024-03-25T13:20:18;1.90;;;1.50;;
2001;SDS011;1003;48.002;7.788;2024-03-25T13:22:44;1.63;;;1.10;;
2001;SDS011;1003;48.002;7.788;2024-03-25T13:25:10;2.10;;;1.20;;
2001;SDS011;1003;48.002;7.788;2024-03-25T13:27:36;1.73;;;1.03;;
2001;SDS011;1003;48.002;7.788;2024-03-25T13:30:02;2.50;;;1.33;;
2001;SDS011;1003;48.002;7.788;2024-03-25T13:32:29;2.70;;;1.30;;
2001;SDS011;1003;48.002;7.788;2024-03-25T13:34:55;1.33;;;1.23;;
2001;SDS011;1003;48.002;7.788;2024-03-25T13:37:20;1.30;;;1.17;;
2001;SDS011;1003;48.002;7.788;2024-03-25T13:39:46;1.40;;;1.10;;
2001;SDS011;1003;48.002;7.788;2024-03-25T13:42:12;1.50;;;1.00;;
2001;SDS011;1003;48.002;7.788;2024-03-25T13:44:38;2.17;;;1.30;;
2001;SDS011;1003;48.002;7.788;2024-03-25T13:47:04;1.93;;;1.33;;
2001;SDS011;1003;48.002;7.788;2024-03-25T13:49:30;1.83;;;1.10;;
2001;SDS011;1003;48.002;7.788;2024-03-25T13:52:00;1.60;;;1.23;;
2001;SDS011;1003;48.002;7.788;2024-03-25T13:54:29;2.00;;;1.23;;
2001;SDS011;1003;48.002;7.788;2024-03-25T13:56:57;1.57;;;1.03;;
2001;SDS011;1003;48.002;7.788;2024-03-25T13:59:24;1.40;;;1.10;;
2001;SDS011;1003;48.002;7.788;2024-03-25T14:01:50;1.03;;;1.03;;
2001;SDS011;1003;48.002;7.788;2024-03-25T14:04:16;1.73;;;1.10;;
2001;SDS011;1003;48.002;7.788;2024-03-25T14:06:43;1.40;;;0.97;;
2001;SDS011;1003;48.002;7.788;2024-03-25T14:09:09;1.63;;;1.13;;
2001;SDS011;1003;48.002;7.788;2024-03-25T14:11:35;1.40;;;0.93;;
2001;SDS011;1003;48.002;7.788;2024-03-25T14:14:01;0.97;;;0.90;;
2001;SDS011;1003;48.002;7.788;2024-03-25T14:16:28;2.47;;;1.10;;
2001;SDS011;1003;48.002;7.788;2024-03-25T14:18:54;1.60;;;1.30;;
2001;SDS011;1003;48.002;7.788;2024-03-25T14:21:20;0.90;;;0.90;;
2001;SDS011;1003;48.002;7.788;2024-03-25T14:23:45;1.40;;;1.20;;
2001;SDS011;1003;48.002;7.788;2024-03-25T14:26:14;1.73;;;1.07;;
2001;SDS011;1003;48.002;7.788;2024-03-25T14:28:40;1.40;;;1.00;;
2001;SDS011;1003;48.002;7.788;2024-03-25T14:31:06;2.07;;;1.30;;
2001;SDS011;1003;48.002;7.788;2024-03-25T14:33:32;3.33;;;1.97;;
2001;SDS011;1003;48.002;7.788;2024-03-25T14:35:58;2.97;;;1.20;;
2001;SDS011;1003;48.002;7.788;2024-03-25T14:38:24;1.53;;;1.20;;
2001;SDS011;1003;48.002;7.788;2024-03-25T14:40:49;1.00;;;0.90;;
2001;SDS011;1003;48.002;7.788;2024-03-25T14:43:15;0.80;;;0.80;;
2001;SDS011;1003;48.002;7.788;2024-03-25T14:45:41;1.83;;;1.00;;
2001;SDS011;1003;48.002;7.788;2024-03-25T14:48:07;0.80;;;0.80;;
2001;SDS011;1003;48.002;7.788;2024-03-25T14:50:33;1.17;;;1.07;;
2001;SDS011;1003;48.002;7.788;2024-03-25T14:52:59;1.40;;;1.30;;
2001;SDS011;1003;48.002;7.788;2024-03-25T14:55:25;3.10;;;1.10;;
2001;SDS011;1003;48.002;7.788;2024-03-25T14:57:50;1.90;;;1.13;;
2001;SDS011;1003;48.002;7.788;2024-03-25T15:00:16;2.67;;;1.20;;
2001;SDS011;1003;48.002;7.788;2024-03-25T15:02:42;1.93;;;1.00;;
2001;SDS011;1003;48.002;7.788;2024-03-25T15:05:08;1.20;;;0.83;;
2001;SDS011;1003;48.002;7.788;2024-03-25T15:07:34;1.77;;;0.77;;
2001;SDS011;1003;48.002;7.788;2024-03-25T15:09:59;1.10;;;1.00;;
2001;SDS011;1003;48.002;7.788;2024-03-25T15:12:25;1.40;;;1.07;;
2001;SDS011;1003;48.002;7.788;2024-03-25T15:14:51;1.20;;;1.10;;